createdAt,value
2023-01-30T00:02:18.514Z,10.23
2023-01-30T00:05:27.195Z,9.83
2023-01-30T00:08:35.297Z,9.50
2023-01-30T00:11:44.991Z,8.57
2023-01-30T00:14:53.319Z,10.33
2023-01-30T00:18:01.576Z,9.87
2023-01-30T00:21:13.009Z,10.17
2023-01-30T00:24:21.428Z,9.73
2023-01-30T00:27:32.337Z,9.27
2023-01-30T00:30:40.993Z,10.47
2023-01-30T00:33:49.239Z,9.37
2023-01-30T00:37:07.859Z,10.33
2023-01-30T00:40:17.572Z,10.40
2023-01-30T00:43:44.995Z,8.83
2023-01-30T00:47:08.928Z,9.97
2023-01-30T00:50:17.933Z,9.53
2023-01-30T00:53:26.721Z,8.53
2023-01-30T00:56:35.127Z,9.87
2023-01-30T00:59:44.970Z,9.37
2023-01-30T01:02:53.454Z,9.67
2023-01-30T01:06:01.771Z,7.67
2023-01-30T01:09:10.235Z,9.57
2023-01-30T01:12:18.562Z,8.73
2023-01-30T01:15:29.303Z,9.07
2023-01-30T01:18:37.907Z,8.87
2023-01-30T01:21:48.837Z,8.33
2023-01-30T01:24:57.242Z,8.90
2023-01-30T01:28:06.169Z,8.60
2023-01-30T01:31:18.414Z,8.80
2023-01-30T01:34:26.876Z,8.93
2023-01-30T01:37:35.457Z,9.00
2023-01-30T01:41:06.289Z,8.73
2023-01-30T01:44:17.472Z,8.30
2023-01-30T01:47:27.759Z,9.40
2023-01-30T01:50:45.197Z,8.93
2023-01-30T01:54:03.049Z,7.80
2023-01-30T01:57:22.699Z,7.97
2023-01-30T02:00:33.318Z,9.43
2023-01-30T02:03:48.592Z,7.63
2023-01-30T02:06:57.794Z,7.43
2023-01-30T02:10:09.623Z,8.63
2023-01-30T02:13:19.010Z,8.63
2023-01-30T02:16:28.828Z,8.83
2023-01-30T02:19:50.722Z,8.40
2023-01-30T02:24:02.634Z,8.83
2023-01-30T02:27:37.355Z,7.63
2023-01-30T02:31:26.035Z,8.23
2023-01-30T02:34:52.560Z,7.50
2023-01-30T02:38:20.459Z,7.83
2023-01-30T02:41:38.472Z,8.13
2023-01-30T02:49:37.448Z,7.00
2023-01-30T02:52:49.550Z,8.63
2023-01-30T02:55:58.436Z,7.67
2023-01-30T02:59:07.497Z,9.07
2023-01-30T03:03:12.906Z,9.53
2023-01-30T03:06:54.448Z,8.50
2023-01-30T03:10:10.716Z,8.77
2023-01-30T03:13:41.310Z,8.70
2023-01-30T03:16:56.025Z,7.33
2023-01-30T03:20:05.261Z,8.27
2023-01-30T03:23:15.204Z,9.43
2023-01-30T03:26:30.734Z,7.77
2023-01-30T03:29:40.171Z,8.57
2023-01-30T03:32:48.545Z,8.33
2023-01-30T03:35:57.107Z,7.87
2023-01-30T03:39:07.112Z,9.47
2023-01-30T03:42:15.573Z,8.13
2023-01-30T03:45:24.479Z,8.30
2023-01-30T03:48:33.046Z,9.30
2023-01-30T03:51:41.230Z,11.47
2023-01-30T03:54:50.801Z,9.87
2023-01-30T03:57:59.621Z,9.70
2023-01-30T04:01:13.401Z,9.67
2023-01-30T04:04:22.862Z,10.57
2023-01-30T04:07:32.061Z,10.00
2023-01-30T04:10:41.785Z,10.13
2023-01-30T04:13:50.077Z,11.23
2023-01-30T04:16:58.635Z,10.13
2023-01-30T04:20:21.429Z,10.03
2023-01-30T04:23:34.058Z,9.93
2023-01-30T04:26:46.040Z,11.87
2023-01-30T04:29:55.600Z,11.47
2023-01-30T04:33:03.948Z,11.80
2023-01-30T04:36:13.696Z,10.00
2023-01-30T04:39:22.924Z,10.23
2023-01-30T04:42:32.782Z,9.57
2023-01-30T04:46:03.590Z,10.53
2023-01-30T04:49:12.967Z,10.63
2023-01-30T04:52:21.193Z,11.10
2023-01-30T04:55:29.853Z,11.63
2023-01-30T04:58:39.628Z,11.07
2023-01-30T05:01:49.172Z,10.40
2023-01-30T05:04:57.428Z,10.77
2023-01-30T05:08:06.500Z,10.90
2023-01-30T05:11:14.702Z,9.97
2023-01-30T05:14:24.951Z,10.03
2023-01-30T05:17:33.450Z,9.37
2023-01-30T05:20:41.872Z,9.40
2023-01-30T05:23:50.455Z,9.77
2023-01-30T05:26:58.684Z,8.97
2023-01-30T05:30:10.734Z,9.27
2023-01-30T05:33:18.932Z,9.93
2023-01-30T05:36:27.162Z,8.63
2023-01-30T05:39:35.428Z,8.10
2023-01-30T05:42:43.579Z,9.20
2023-01-30T05:45:55.885Z,9.57
2023-01-30T05:49:04.804Z,9.33
2023-01-30T05:52:13.090Z,9.33
2023-01-30T05:55:21.341Z,9.73
2023-01-30T05:58:30.271Z,9.90
2023-01-30T06:01:39.780Z,9.23
2023-01-30T06:04:48.054Z,9.37
2023-01-30T06:07:56.267Z,8.57
2023-01-30T06:11:07.399Z,9.20
2023-01-30T06:14:15.858Z,8.70
2023-01-30T06:17:25.365Z,9.27
2023-01-30T06:20:33.512Z,9.23
2023-01-30T06:23:42.304Z,7.97
2023-01-30T06:26:50.565Z,7.50
2023-01-30T06:29:58.767Z,7.97
2023-01-30T06:33:09.453Z,7.23
2023-01-30T06:36:17.710Z,8.23
2023-01-30T06:39:26.022Z,7.97
2023-01-30T06:42:34.381Z,7.97
2023-01-30T06:45:42.989Z,8.20
2023-01-30T06:48:52.484Z,7.27
2023-01-30T06:52:00.634Z,7.27
2023-01-30T06:55:10.457Z,6.50
2023-01-30T06:58:18.600Z,7.57
2023-01-30T07:01:28.923Z,6.73
2023-01-30T07:04:38.885Z,7.70
2023-01-30T07:07:47.072Z,8.10
2023-01-30T07:10:55.489Z,7.00
2023-01-30T07:14:05.674Z,7.83
2023-01-30T07:17:15.026Z,6.93
2023-01-30T07:20:25.058Z,7.23
2023-01-30T07:23:33.432Z,8.07
2023-01-30T07:26:41.747Z,7.23
2023-01-30T07:29:51.892Z,7.23
2023-01-30T07:33:02.201Z,8.73
2023-01-30T07:36:12.162Z,9.10
2023-01-30T07:39:20.710Z,7.90
2023-01-30T07:42:29.049Z,8.57
2023-01-30T07:45:40.677Z,7.77
2023-01-30T07:48:49.102Z,7.97
2023-01-30T07:51:58.882Z,7.97
2023-01-30T07:55:08.262Z,8.77
2023-01-30T07:58:18.095Z,7.80
2023-01-30T08:01:26.713Z,8.00
2023-01-30T08:04:35.289Z,8.50
2023-01-30T08:07:44.974Z,9.20
2023-01-30T08:10:53.871Z,8.77
2023-01-30T08:14:03.336Z,9.93
2023-01-30T08:17:11.880Z,9.10
2023-01-30T08:20:21.351Z,8.47
2023-01-30T08:23:32.310Z,8.63
2023-01-30T08:26:40.937Z,8.10
2023-01-30T08:29:49.715Z,8.60
2023-01-30T08:32:58.729Z,7.33
2023-01-30T08:36:09.729Z,7.97
2023-01-30T08:39:20.716Z,8.43
2023-01-30T08:42:28.957Z,7.40
2023-01-30T08:45:37.703Z,8.57
2023-01-30T08:48:50.052Z,6.57
2023-01-30T08:51:58.874Z,6.90
2023-01-30T08:55:10.828Z,6.87
2023-01-30T08:58:19.535Z,6.83
2023-01-30T09:01:27.938Z,6.80
2023-01-30T09:04:36.571Z,6.80
2023-01-30T09:07:46.266Z,7.93
2023-01-30T09:11:00.054Z,7.30
2023-01-30T09:14:08.228Z,6.80
2023-01-30T09:17:16.649Z,7.03
2023-01-30T09:20:25.726Z,6.67
2023-01-30T09:23:34.146Z,6.77
2023-01-30T09:26:45.241Z,7.03
2023-01-30T09:29:53.447Z,6.57
2023-01-30T09:33:02.335Z,6.27
2023-01-30T09:36:11.324Z,5.83
2023-01-30T09:39:20.285Z,6.70
2023-01-30T09:43:06.136Z,6.23
2023-01-30T09:46:29.486Z,6.87
2023-01-30T09:49:54.987Z,6.80
2023-01-30T09:53:11.205Z,6.90
2023-01-30T09:56:19.703Z,6.20
2023-01-30T09:59:45.150Z,6.80
2023-01-30T10:03:05.098Z,6.43
2023-01-30T10:06:16.409Z,6.90
2023-01-30T10:09:43.767Z,6.87
2023-01-30T10:13:07.133Z,6.37
2023-01-30T10:16:26.810Z,6.13
2023-01-30T10:20:04.398Z,7.47
2023-01-30T10:23:48.542Z,6.90
2023-01-30T10:26:59.541Z,5.63
2023-01-30T10:30:17.554Z,5.97
2023-01-30T10:33:36.155Z,7.70
2023-01-30T10:36:53.417Z,6.27
2023-01-30T10:40:13.971Z,5.40
2023-01-30T10:43:31.444Z,5.60
2023-01-30T10:47:10.194Z,6.23
2023-01-30T10:50:27.223Z,5.77
2023-01-30T10:53:46.252Z,5.47
2023-01-30T10:57:08.009Z,4.50
2023-01-30T11:00:29.708Z,3.80
2023-01-30T11:03:46.223Z,3.97
2023-01-30T11:06:59.335Z,3.17
2023-01-30T11:10:19.458Z,3.43
2023-01-30T11:13:31.898Z,3.13
2023-01-30T11:16:48.380Z,2.70
2023-01-30T11:19:59.221Z,2.80
2023-01-30T11:23:22.975Z,2.67
2023-01-30T11:26:47.095Z,2.93
2023-01-30T11:30:16.362Z,2.90
2023-01-30T11:33:34.516Z,2.63
2023-01-30T11:36:43.355Z,1.73
2023-01-30T11:39:54.500Z,1.87
2023-01-30T11:43:06.772Z,2.00
2023-01-30T11:46:20.724Z,3.97
2023-01-30T11:49:51.475Z,3.10
2023-01-30T11:53:27.923Z,3.50
2023-01-30T11:56:42.604Z,3.93
2023-01-30T11:59:58.027Z,3.13
2023-01-30T12:03:12.869Z,2.40
2023-01-30T12:06:33.275Z,2.90
2023-01-30T12:09:41.716Z,3.77
2023-01-30T12:12:54.794Z,3.73
2023-01-30T12:16:20.624Z,2.80
2023-01-30T12:19:45.994Z,3.47
2023-01-30T12:23:12.094Z,2.67
2023-01-30T12:26:27.824Z,1.80
2023-01-30T12:29:49.082Z,2.13
2023-01-30T12:36:35.746Z,2.10
2023-01-30T12:40:01.718Z,2.10
2023-01-30T12:43:40.784Z,2.40
2023-01-30T12:47:13.155Z,1.90
2023-01-30T12:50:34.841Z,1.93
2023-01-30T12:54:01.878Z,2.30
2023-01-30T12:57:25.242Z,2.37
2023-01-30T13:00:53.283Z,1.53
2023-01-30T13:04:15.417Z,1.60
2023-01-30T13:07:34.462Z,2.00
2023-01-30T13:10:53.385Z,1.60
2023-01-30T13:14:17.045Z,1.60
2023-01-30T13:18:00.726Z,1.63
2023-01-30T13:21:19.848Z,1.67
2023-01-30T13:24:49.149Z,1.50
2023-01-30T13:28:04.301Z,1.27
2023-01-30T13:31:18.737Z,1.30
2023-01-30T13:34:35.454Z,1.40
2023-01-30T13:37:49.232Z,1.00
2023-01-30T13:41:01.631Z,1.70
2023-01-30T13:44:22.868Z,1.30
2023-01-30T13:47:49.904Z,1.00
2023-01-30T13:51:32.354Z,0.80
2023-01-30T13:55:01.829Z,1.27
2023-01-30T13:58:32.677Z,1.10
2023-01-30T14:02:19.903Z,0.70
2023-01-30T14:06:04.767Z,1.00
2023-01-30T14:09:25.730Z,0.70
2023-01-30T14:12:41.971Z,0.67
2023-01-30T14:15:57.543Z,0.80
2023-01-30T14:19:46.708Z,0.70
2023-01-30T14:22:57.986Z,0.63
2023-01-30T14:26:06.411Z,2.30
2023-01-30T14:29:54.022Z,1.13
2023-01-30T14:33:03.968Z,3.57
2023-01-30T14:36:38.063Z,4.83
2023-01-30T14:39:56.352Z,1.20
2023-01-30T14:43:53.259Z,2.97
2023-01-30T14:47:33.942Z,0.97
2023-01-30T14:50:32.216Z,1.30
2023-01-30T14:53:55.370Z,1.53
2023-01-30T14:57:07.176Z,4.90
2023-01-30T15:00:21.880Z,3.10
2023-01-30T15:03:39.526Z,0.97
2023-01-30T15:06:50.694Z,1.10
2023-01-30T15:10:03.968Z,1.40
2023-01-30T15:13:59.968Z,1.20
2023-01-30T15:17:27.468Z,1.20
2023-01-30T15:20:55.267Z,1.20
2023-01-30T15:24:27.030Z,1.00
2023-01-30T15:27:55.923Z,1.13
2023-01-30T15:31:13.654Z,1.20
2023-01-30T15:34:23.465Z,1.10
2023-01-30T15:37:39.618Z,1.67
2023-01-30T15:40:48.463Z,1.50
2023-01-30T15:44:45.302Z,1.20
2023-01-30T15:48:23.760Z,1.10
2023-01-30T15:51:35.171Z,1.33
2023-01-30T15:54:51.270Z,1.50
2023-01-30T15:58:07.718Z,1.07
2023-01-30T16:01:22.533Z,1.30
2023-01-30T16:04:32.089Z,1.87
2023-01-30T16:07:40.719Z,1.60
2023-01-30T16:10:51.895Z,2.23
2023-01-30T16:14:00.660Z,1.70
2023-01-30T16:17:12.699Z,2.50
2023-01-30T16:20:21.028Z,2.30
2023-01-30T16:23:34.981Z,2.03
2023-01-30T16:26:48.540Z,2.50
2023-01-30T16:30:00.565Z,2.30
2023-01-30T16:33:12.255Z,2.07
2023-01-30T16:36:40.642Z,2.53
2023-01-30T16:40:12.870Z,2.50
2023-01-30T16:43:27.217Z,2.80
2023-01-30T16:46:53.182Z,4.03
2023-01-30T16:50:02.073Z,2.87
2023-01-30T16:53:18.429Z,2.93
2023-01-30T16:56:29.654Z,2.30
2023-01-30T16:59:40.310Z,2.63
2023-01-30T17:02:54.851Z,2.33
2023-01-30T17:06:12.585Z,2.60
2023-01-30T17:09:39.397Z,3.10
2023-01-30T17:12:53.197Z,2.50
2023-01-30T17:16:34.082Z,2.47
2023-01-30T17:19:42.591Z,3.17
2023-01-30T17:22:53.893Z,2.63
2023-01-30T17:26:02.189Z,2.60
2023-01-30T17:29:23.383Z,2.93
2023-01-30T17:32:40.859Z,2.43
2023-01-30T17:35:50.064Z,2.97
2023-01-30T17:39:00.586Z,2.87
2023-01-30T17:42:13.591Z,2.60
2023-01-30T17:45:31.199Z,2.50
2023-01-30T17:48:41.627Z,2.30
2023-01-30T17:51:53.898Z,3.33
2023-01-30T17:55:02.372Z,3.57
2023-01-30T17:58:20.455Z,3.17
2023-01-30T18:01:29.036Z,3.43
2023-01-30T18:04:40.080Z,3.80
2023-01-30T18:07:48.795Z,3.20
2023-01-30T18:10:57.883Z,3.83
2023-01-30T18:14:07.234Z,3.23
2023-01-30T18:17:15.705Z,4.23
2023-01-30T18:20:25.819Z,4.00
2023-01-30T18:23:34.453Z,4.27
2023-01-30T18:26:43.864Z,4.50
2023-01-30T18:29:53.105Z,4.57
2023-01-30T18:33:01.270Z,3.40
2023-01-30T18:36:13.735Z,4.30
2023-01-30T18:39:22.139Z,4.47
2023-01-30T18:42:30.711Z,3.60
2023-01-30T18:45:40.142Z,4.27
2023-01-30T18:48:49.238Z,4.20
2023-01-30T18:51:59.701Z,3.90
2023-01-30T18:55:09.386Z,4.47
2023-01-30T18:58:17.693Z,3.70
2023-01-30T19:01:28.911Z,3.77
2023-01-30T19:04:37.420Z,3.87
2023-01-30T19:07:47.829Z,3.43
2023-01-30T19:11:16.311Z,3.70
2023-01-30T19:14:23.559Z,3.70
2023-01-30T19:17:32.044Z,4.53
2023-01-30T19:20:41.218Z,2.90
2023-01-30T19:23:51.417Z,4.07
2023-01-30T19:26:59.867Z,3.63
2023-01-30T19:30:10.583Z,4.13
2023-01-30T19:33:20.748Z,4.73
2023-01-30T19:36:33.503Z,3.50
2023-01-30T19:39:43.486Z,3.23
2023-01-30T19:42:54.694Z,3.63
2023-01-30T19:46:06.301Z,3.67
2023-01-30T19:49:15.057Z,3.70
2023-01-30T19:52:24.140Z,3.53
2023-01-30T19:55:36.660Z,3.13
2023-01-30T19:58:45.212Z,4.07
2023-01-30T20:01:53.531Z,3.43
2023-01-30T20:05:02.557Z,3.20
2023-01-30T20:08:21.832Z,3.53
2023-01-30T20:11:41.986Z,3.43
2023-01-30T20:14:51.283Z,3.07
2023-01-30T20:17:59.738Z,3.37
2023-01-30T20:21:10.630Z,3.23
2023-01-30T20:24:19.295Z,3.40
2023-01-30T20:27:29.510Z,3.57
2023-01-30T20:30:40.960Z,2.87
2023-01-30T20:33:50.064Z,3.40
2023-01-30T20:36:59.759Z,3.03
2023-01-30T20:40:10.264Z,2.83
2023-01-30T20:43:20.186Z,2.40
2023-01-30T20:46:32.204Z,2.10
2023-01-30T20:49:40.666Z,2.57
2023-01-30T20:52:51.472Z,2.83
2023-01-30T20:56:00.125Z,2.40
2023-01-30T20:59:12.609Z,2.47
2023-01-30T21:02:21.035Z,2.67
2023-01-30T21:05:29.606Z,2.20
2023-01-30T21:08:41.530Z,1.97
2023-01-30T21:11:52.660Z,2.03
2023-01-30T21:15:02.231Z,1.93
2023-01-30T21:18:10.692Z,1.90
2023-01-30T21:21:22.483Z,2.23
2023-01-30T21:24:30.895Z,2.90
2023-01-30T21:27:40.749Z,1.90
2023-01-30T21:30:51.434Z,2.27
2023-01-30T21:34:00.830Z,1.60
2023-01-30T21:37:26.376Z,1.87
2023-01-30T21:40:51.998Z,2.03
2023-01-30T21:44:00.434Z,1.93
2023-01-30T21:47:10.037Z,1.90
2023-01-30T21:50:18.947Z,1.43
2023-01-30T21:53:28.107Z,2.10
2023-01-30T21:56:36.775Z,2.57
2023-01-30T21:59:45.209Z,2.23
2023-01-30T22:02:54.920Z,2.53
2023-01-30T22:06:03.991Z,2.53
2023-01-30T22:09:16.414Z,2.33
2023-01-30T22:12:25.162Z,1.90
2023-01-30T22:15:34.313Z,2.10
2023-01-30T22:18:45.768Z,1.80
2023-01-30T22:21:55.221Z,1.93
2023-01-30T22:25:03.776Z,2.87
2023-01-30T22:28:12.284Z,2.13
2023-01-30T22:31:22.222Z,2.43
2023-01-30T22:34:33.542Z,1.53
2023-01-30T22:37:43.082Z,2.73
2023-01-30T22:40:51.805Z,2.60
2023-01-30T22:44:02.393Z,2.43
2023-01-30T22:47:11.159Z,2.33
2023-01-30T22:50:21.289Z,2.67
2023-01-30T22:53:33.923Z,2.60
2023-01-30T22:56:44.271Z,2.43
2023-01-30T22:59:52.781Z,2.60
2023-01-30T23:03:01.106Z,2.70
2023-01-30T23:06:14.866Z,2.50
2023-01-30T23:09:24.582Z,2.07
2023-01-30T23:12:55.846Z,2.30
2023-01-30T23:16:06.891Z,2.07
2023-01-30T23:19:14.205Z,2.50
2023-01-30T23:22:24.118Z,2.43
2023-01-30T23:25:32.423Z,1.90
2023-01-30T23:28:41.612Z,1.90
2023-01-30T23:31:50.071Z,2.13
2023-01-30T23:34:58.397Z,2.00
2023-01-30T23:38:18.945Z,1.70
2023-01-30T23:41:30.457Z,2.27
2023-01-30T23:44:38.990Z,1.50
2023-01-30T23:47:47.094Z,1.80
2023-01-30T23:50:55.204Z,2.07
2023-01-30T23:54:06.721Z,1.60
2023-01-30T23:57:15.013Z,1.77
